sensor_id;sensor_type;location;lat;lon;timestamp;pressure;altitude;pressure_sealevel;temperature;humidity
50310;BME280;36207;51.850;21.698;2024-03-29T00:01:25;98171.73;;;8.13;73.14
50310;BME280;36207;51.850;21.698;2024-03-29T00:03:53;98177.63;;;8.24;73.26
50310;BME280;36207;51.850;21.698;2024-03-29T00:06:19;98183.20;;;8.34;73.72
50310;BME280;36207;51.850;21.698;2024-03-29T00:08:45;98188.20;;;8.39;74.22
50310;BME280;36207;51.850;21.698;2024-03-29T00:11:11;98191.92;;;8.43;73.89
50310;BME280;36207;51.850;21.698;2024-03-29T00:13:37;98197.11;;;8.47;74.06
50310;BME280;36207;51.850;21.698;2024-03-29T00:16:03;98198.81;;;8.48;73.55
50310;BME280;36207;51.850;21.698;2024-03-29T00:18:29;98208.63;;;8.51;73.40
50310;BME280;36207;51.850;21.698;2024-03-29T00:20:55;98212.64;;;8.53;73.83
50310;BME280;36207;51.850;21.698;2024-03-29T00:23:21;98212.79;;;8.54;73.88
50310;BME280;36207;51.850;21.698;2024-03-29T00:25:47;98219.50;;;8.56;74.05
50310;BME280;36207;51.850;21.698;2024-03-29T00:28:13;98221.58;;;8.57;74.15
50310;BME280;36207;51.850;21.698;2024-03-29T00:30:39;98227.30;;;8.58;74.07
50310;BME280;36207;51.850;21.698;2024-03-29T00:33:05;98231.93;;;8.59;73.70
50310;BME280;36207;51.850;21.698;2024-03-29T00:35:31;98241.05;;;8.60;74.27
50310;BME280;36207;51.850;21.698;2024-03-29T00:37:58;98243.67;;;8.60;75.44
50310;BME280;36207;51.850;21.698;2024-03-29T00:40:24;98251.24;;;8.61;75.99
50310;BME280;36207;51.850;21.698;2024-03-29T00:42:49;98256.23;;;8.61;76.10
50310;BME280;36207;51.850;21.698;2024-03-29T00:45:15;98257.42;;;8.61;75.91
50310;BME280;36207;51.850;21.698;2024-03-29T00:47:42;98262.78;;;8.61;76.26
50310;BME280;36207;51.850;21.698;2024-03-29T00:50:08;98270.70;;;8.60;77.24
50310;BME280;36207;51.850;21.698;2024-03-29T00:52:35;98276.38;;;8.60;78.56
50310;BME280;36207;51.850;21.698;2024-03-29T00:55:02;98284.65;;;8.59;78.73
50310;BME280;36207;51.850;21.698;2024-03-29T00:57:29;98287.92;;;8.57;78.72
50310;BME280;36207;51.850;21.698;2024-03-29T00:59:55;98294.20;;;8.55;78.62
50310;BME280;36207;51.850;21.698;2024-03-29T01:02:23;98299.57;;;8.54;78.61
50310;BME280;36207;51.850;21.698;2024-03-29T01:04:52;98306.98;;;8.51;78.47
50310;BME280;36207;51.850;21.698;2024-03-29T01:07:18;98313.28;;;8.49;78.20
50310;BME280;36207;51.850;21.698;2024-03-29T01:09:44;98317.42;;;8.47;78.41
50310;BME280;36207;51.850;21.698;2024-03-29T01:12:10;98328.71;;;8.46;78.68
50310;BME280;36207;51.850;21.698;2024-03-29T01:14:37;98333.98;;;8.45;78.81
50310;BME280;36207;51.850;21.698;2024-03-29T01:17:03;98338.83;;;8.44;79.09
50310;BME280;36207;51.850;21.698;2024-03-29T01:19:29;98342.51;;;8.43;79.17
50310;BME280;36207;51.850;21.698;2024-03-29T01:21:55;98344.12;;;8.41;78.76
50310;BME280;36207;51.850;21.698;2024-03-29T01:24:22;98346.49;;;8.41;78.80
50310;BME280;36207;51.850;21.698;2024-03-29T01:26:47;98351.48;;;8.40;78.99
50310;BME280;36207;51.850;21.698;2024-03-29T01:29:13;98356.47;;;8.38;78.83
50310;BME280;36207;51.850;21.698;2024-03-29T01:31:39;98363.97;;;8.37;79.26
50310;BME280;36207;51.850;21.698;2024-03-29T01:34:05;98371.62;;;8.37;79.11
50310;BME280;36207;51.850;21.698;2024-03-29T01:36:31;98374.85;;;8.35;78.91
50310;BME280;36207;51.850;21.698;2024-03-29T01:38:57;98382.59;;;8.35;79.11
50310;BME280;36207;51.850;21.698;2024-03-29T01:41:24;98385.85;;;8.33;79.43
50310;BME280;36207;51.850;21.698;2024-03-29T01:43:54;98387.87;;;8.31;79.85
50310;BME280;36207;51.850;21.698;2024-03-29T01:46:21;98395.39;;;8.29;79.99
50310;BME280;36207;51.850;21.698;2024-03-29T01:48:50;98396.70;;;8.27;80.33
50310;BME280;36207;51.850;21.698;2024-03-29T01:51:18;98403.54;;;8.25;80.06
50310;BME280;36207;51.850;21.698;2024-03-29T01:53:46;98406.19;;;8.24;80.34
50310;BME280;36207;51.850;21.698;2024-03-29T01:56:14;98414.33;;;8.21;80.38
50310;BME280;36207;51.850;21.698;2024-03-29T01:58:41;98421.65;;;8.20;80.53
50310;BME280;36207;51.850;21.698;2024-03-29T02:01:09;98427.02;;;8.18;79.94
50310;BME280;36207;51.850;21.698;2024-03-29T02:03:36;98432.86;;;8.17;80.21
50310;BME280;36207;51.850;21.698;2024-03-29T02:06:02;98441.88;;;8.15;80.63
50310;BME280;36207;51.850;21.698;2024-03-29T02:08:29;98453.77;;;8.14;81.23
50310;BME280;36207;51.850;21.698;2024-03-29T02:10:55;98457.30;;;8.11;81.29
50310;BME280;36207;51.850;21.698;2024-03-29T02:13:24;98463.06;;;8.08;80.77
50310;BME280;36207;51.850;21.698;2024-03-29T02:15:51;98466.95;;;8.06;80.64
50310;BME280;36207;51.850;21.698;2024-03-29T02:18:16;98474.76;;;8.05;81.35
50310;BME280;36207;51.850;21.698;2024-03-29T02:20:42;98475.32;;;8.02;81.05
50310;BME280;36207;51.850;21.698;2024-03-29T02:23:13;98480.47;;;8.01;80.99
50310;BME280;36207;51.850;21.698;2024-03-29T02:25:39;98482.55;;;8.00;80.69
50310;BME280;36207;51.850;21.698;2024-03-29T02:28:06;98483.86;;;7.98;80.65
50310;BME280;36207;51.850;21.698;2024-03-29T02:30:32;98493.05;;;7.97;80.67
50310;BME280;36207;51.850;21.698;2024-03-29T02:33:01;98498.20;;;7.95;80.63
50310;BME280;36207;51.850;21.698;2024-03-29T02:35:28;98499.66;;;7.94;80.58
50310;BME280;36207;51.850;21.698;2024-03-29T02:37:55;98501.34;;;7.92;80.53
50310;BME280;36207;51.850;21.698;2024-03-29T02:40:20;98505.14;;;7.91;80.66
50310;BME280;36207;51.850;21.698;2024-03-29T02:42:50;98513.39;;;7.90;80.77
50310;BME280;36207;51.850;21.698;2024-03-29T02:45:16;98531.21;;;7.90;81.09
50310;BME280;36207;51.850;21.698;2024-03-29T02:47:43;98540.04;;;7.87;81.51
50310;BME280;36207;51.850;21.698;2024-03-29T02:50:13;98545.70;;;7.84;81.50
50310;BME280;36207;51.850;21.698;2024-03-29T02:52:39;98552.73;;;7.82;80.98
50310;BME280;36207;51.850;21.698;2024-03-29T02:55:05;98550.31;;;7.80;80.58
50310;BME280;36207;51.850;21.698;2024-03-29T02:57:31;98538.25;;;7.79;80.10
50310;BME280;36207;51.850;21.698;2024-03-29T02:59:57;98531.01;;;7.80;79.53
50310;BME280;36207;51.850;21.698;2024-03-29T03:02:23;98531.43;;;7.82;79.50
50310;BME280;36207;51.850;21.698;2024-03-29T03:04:49;98535.86;;;7.84;79.32
50310;BME280;36207;51.850;21.698;2024-03-29T03:07:15;98535.57;;;7.84;79.03
50310;BME280;36207;51.850;21.698;2024-03-29T03:10:00;98545.10;;;7.86;78.86
50310;BME280;36207;51.850;21.698;2024-03-29T03:12:44;98556.97;;;7.88;79.15
50310;BME280;36207;51.850;21.698;2024-03-29T03:15:10;98558.56;;;7.88;79.34
50310;BME280;36207;51.850;21.698;2024-03-29T03:17:36;98554.64;;;7.88;78.59
50310;BME280;36207;51.850;21.698;2024-03-29T03:20:02;98556.52;;;7.88;78.58
50310;BME280;36207;51.850;21.698;2024-03-29T03:22:32;98559.43;;;7.89;78.45
50310;BME280;36207;51.850;21.698;2024-03-29T03:24:58;98553.26;;;7.90;78.42
50310;BME280;36207;51.850;21.698;2024-03-29T03:27:24;98557.10;;;7.89;78.35
50310;BME280;36207;51.850;21.698;2024-03-29T03:29:50;98559.73;;;7.91;78.31
50310;BME280;36207;51.850;21.698;2024-03-29T03:32:16;98566.23;;;7.91;78.09
50310;BME280;36207;51.850;21.698;2024-03-29T03:34:42;98572.13;;;7.91;78.19
50310;BME280;36207;51.850;21.698;2024-03-29T03:37:08;98580.67;;;7.92;78.07
50310;BME280;36207;51.850;21.698;2024-03-29T03:39:34;98583.53;;;7.93;78.10
50310;BME280;36207;51.850;21.698;2024-03-29T03:42:00;98591.13;;;7.93;78.02
50310;BME280;36207;51.850;21.698;2024-03-29T03:44:26;98606.77;;;7.94;78.05
50310;BME280;36207;51.850;21.698;2024-03-29T03:46:55;98611.67;;;7.94;78.25
50310;BME280;36207;51.850;21.698;2024-03-29T03:49:21;98614.04;;;7.92;78.18
50310;BME280;36207;51.850;21.698;2024-03-29T03:51:47;98620.05;;;7.91;78.17
50310;BME280;36207;51.850;21.698;2024-03-29T03:54:13;98621.82;;;7.88;78.18
50310;BME280;36207;51.850;21.698;2024-03-29T03:56:39;98626.61;;;7.86;78.23
50310;BME280;36207;51.850;21.698;2024-03-29T03:59:05;98630.00;;;7.86;78.11
50310;BME280;36207;51.850;21.698;2024-03-29T04:01:30;98636.89;;;7.85;78.07
50310;BME280;36207;51.850;21.698;2024-03-29T04:03:56;98636.61;;;7.84;78.02
50310;BME280;36207;51.850;21.698;2024-03-29T04:06:22;98643.39;;;7.84;77.98
50310;BME280;36207;51.850;21.698;2024-03-29T04:08:48;98649.16;;;7.83;77.92
50310;BME280;36207;51.850;21.698;2024-03-29T04:11:14;98653.27;;;7.81;78.00
50310;BME280;36207;51.850;21.698;2024-03-29T04:13:42;98654.48;;;7.80;77.87
50310;BME280;36207;51.850;21.698;2024-03-29T04:16:08;98658.48;;;7.78;77.94
50310;BME280;36207;51.850;21.698;2024-03-29T04:18:34;98662.89;;;7.77;78.24
50310;BME280;36207;51.850;21.698;2024-03-29T04:21:02;98666.34;;;7.75;78.45
50310;BME280;36207;51.850;21.698;2024-03-29T04:23:28;98673.27;;;7.72;78.61
50310;BME280;36207;51.850;21.698;2024-03-29T04:25:56;98675.71;;;7.69;78.84
50310;BME280;36207;51.850;21.698;2024-03-29T04:28:22;98679.98;;;7.67;79.03
50310;BME280;36207;51.850;21.698;2024-03-29T04:30:56;98684.63;;;7.65;79.00
50310;BME280;36207;51.850;21.698;2024-03-29T04:33:23;98687.84;;;7.63;79.04
50310;BME280;36207;51.850;21.698;2024-03-29T04:35:59;98696.63;;;7.62;79.26
50310;BME280;36207;51.850;21.698;2024-03-29T04:38:26;98698.59;;;7.62;78.99
50310;BME280;36207;51.850;21.698;2024-03-29T04:40:54;98704.64;;;7.62;78.93
50310;BME280;36207;51.850;21.698;2024-03-29T04:43:22;98712.52;;;7.63;79.00
50310;BME280;36207;51.850;21.698;2024-03-29T04:45:48;98718.73;;;7.61;79.09
50310;BME280;36207;51.850;21.698;2024-03-29T04:48:14;98721.73;;;7.59;79.05
50310;BME280;36207;51.850;21.698;2024-03-29T04:50:40;98720.84;;;7.59;78.89
50310;BME280;36207;51.850;21.698;2024-03-29T04:53:09;98722.71;;;7.58;78.88
50310;BME280;36207;51.850;21.698;2024-03-29T04:55:36;98722.66;;;7.57;78.80
50310;BME280;36207;51.850;21.698;2024-03-29T04:58:02;98723.02;;;7.56;78.71
50310;BME280;36207;51.850;21.698;2024-03-29T05:00:28;98726.06;;;7.53;78.69
50310;BME280;36207;51.850;21.698;2024-03-29T05:02:54;98736.47;;;7.52;78.88
50310;BME280;36207;51.850;21.698;2024-03-29T05:05:20;98744.34;;;7.50;78.86
50310;BME280;36207;51.850;21.698;2024-03-29T05:07:46;98743.25;;;7.47;78.48
50310;BME280;36207;51.850;21.698;2024-03-29T05:10:12;98744.09;;;7.45;78.52
50310;BME280;36207;51.850;21.698;2024-03-29T05:12:38;98746.52;;;7.44;78.46
50310;BME280;36207;51.850;21.698;2024-03-29T05:15:05;98745.98;;;7.43;78.42
50310;BME280;36207;51.850;21.698;2024-03-29T05:17:31;98748.84;;;7.41;78.39
50310;BME280;36207;51.850;21.698;2024-03-29T05:19:57;98747.20;;;7.38;78.49
50310;BME280;36207;51.850;21.698;2024-03-29T05:22:23;98742.30;;;7.36;78.41
50310;BME280;36207;51.850;21.698;2024-03-29T05:24:53;98744.01;;;7.35;78.44
50310;BME280;36207;51.850;21.698;2024-03-29T05:27:20;98751.89;;;7.35;78.38
50310;BME280;36207;51.850;21.698;2024-03-29T05:29:46;98758.19;;;7.36;78.67
50310;BME280;36207;51.850;21.698;2024-03-29T05:32:12;98761.41;;;7.36;78.81
50310;BME280;36207;51.850;21.698;2024-03-29T05:34:38;98773.37;;;7.38;79.12
50310;BME280;36207;51.850;21.698;2024-03-29T05:37:04;98772.61;;;7.41;79.24
50310;BME280;36207;51.850;21.698;2024-03-29T05:39:30;98782.14;;;7.41;79.54
50310;BME280;36207;51.850;21.698;2024-03-29T05:41:56;98787.71;;;7.43;79.63
50310;BME280;36207;51.850;21.698;2024-03-29T05:44:24;98790.20;;;7.47;79.67
50310;BME280;36207;51.850;21.698;2024-03-29T05:46:49;98789.98;;;7.50;79.87
50310;BME280;36207;51.850;21.698;2024-03-29T05:49:15;98795.05;;;7.54;80.06
50310;BME280;36207;51.850;21.698;2024-03-29T05:51:42;98793.56;;;7.59;80.14
50310;BME280;36207;51.850;21.698;2024-03-29T05:54:08;98796.42;;;7.64;80.28
50310;BME280;36207;51.850;21.698;2024-03-29T05:56:34;98801.42;;;7.71;80.17
50310;BME280;36207;51.850;21.698;2024-03-29T05:59:00;98799.90;;;7.77;80.40
50310;BME280;36207;51.850;21.698;2024-03-29T06:01:25;98799.05;;;7.84;80.23
50310;BME280;36207;51.850;21.698;2024-03-29T06:03:51;98800.27;;;7.92;80.35
50310;BME280;36207;51.850;21.698;2024-03-29T06:06:20;98806.69;;;8.01;80.60
50310;BME280;36207;51.850;21.698;2024-03-29T06:08:53;98812.20;;;8.10;80.54
50310;BME280;36207;51.850;21.698;2024-03-29T06:11:19;98813.59;;;8.17;80.40
50310;BME280;36207;51.850;21.698;2024-03-29T06:13:45;98818.94;;;8.25;80.52
50310;BME280;36207;51.850;21.698;2024-03-29T06:16:25;98825.05;;;8.34;80.36
50310;BME280;36207;51.850;21.698;2024-03-29T06:19:11;98823.77;;;8.45;80.47
50310;BME280;36207;51.850;21.698;2024-03-29T06:21:37;98821.45;;;8.53;80.44
50310;BME280;36207;51.850;21.698;2024-03-29T06:24:10;98816.95;;;8.62;80.33
50310;BME280;36207;51.850;21.698;2024-03-29T06:26:41;98815.53;;;8.71;80.12
50310;BME280;36207;51.850;21.698;2024-03-29T06:29:08;98824.05;;;8.79;79.72
50310;BME280;36207;51.850;21.698;2024-03-29T06:31:35;98826.67;;;8.86;79.50
50310;BME280;36207;51.850;21.698;2024-03-29T06:34:01;98834.73;;;8.94;79.55
50310;BME280;36207;51.850;21.698;2024-03-29T06:36:27;98841.80;;;9.02;79.49
50310;BME280;36207;51.850;21.698;2024-03-29T06:38:54;98846.91;;;9.11;79.59
50310;BME280;36207;51.850;21.698;2024-03-29T06:41:20;98852.68;;;9.20;79.58
50310;BME280;36207;51.850;21.698;2024-03-29T06:43:46;98857.42;;;9.27;79.18
50310;BME280;36207;51.850;21.698;2024-03-29T06:46:13;98860.40;;;9.34;79.09
50310;BME280;36207;51.850;21.698;2024-03-29T06:48:40;98868.21;;;9.41;79.04
50310;BME280;36207;51.850;21.698;2024-03-29T06:51:06;98870.66;;;9.48;78.95
50310;BME280;36207;51.850;21.698;2024-03-29T06:53:32;98877.37;;;9.57;79.00
50310;BME280;36207;51.850;21.698;2024-03-29T06:56:00;98884.77;;;9.65;78.94
50310;BME280;36207;51.850;21.698;2024-03-29T06:58:27;98887.19;;;9.74;78.69
50310;BME280;36207;51.850;21.698;2024-03-29T07:00:53;98889.17;;;9.82;78.31
50310;BME280;36207;51.850;21.698;2024-03-29T07:03:19;98890.28;;;9.88;78.16
50310;BME280;36207;51.850;21.698;2024-03-29T07:05:46;98896.75;;;9.95;77.95
50310;BME280;36207;51.850;21.698;2024-03-29T07:08:12;98900.61;;;10.00;77.11
50310;BME280;36207;51.850;21.698;2024-03-29T07:10:39;98907.44;;;10.06;77.40
50310;BME280;36207;51.850;21.698;2024-03-29T07:13:08;98915.58;;;10.14;77.33
50310;BME280;36207;51.850;21.698;2024-03-29T07:15:35;98918.29;;;10.22;77.24
50310;BME280;36207;51.850;21.698;2024-03-29T07:18:02;98915.23;;;10.30;77.19
50310;BME280;36207;51.850;21.698;2024-03-29T07:20:31;98914.72;;;10.39;77.56
50310;BME280;36207;51.850;21.698;2024-03-29T07:22:57;98917.93;;;10.48;76.76
50310;BME280;36207;51.850;21.698;2024-03-29T07:25:23;98913.53;;;10.55;75.83
50310;BME280;36207;51.850;21.698;2024-03-29T07:27:49;98909.88;;;10.62;76.32
50310;BME280;36207;51.850;21.698;2024-03-29T07:30:18;98905.17;;;10.70;76.49
50310;BME280;36207;51.850;21.698;2024-03-29T07:32:44;98901.18;;;10.80;76.53
50310;BME280;36207;51.850;21.698;2024-03-29T07:35:10;98903.48;;;10.89;75.90
50310;BME280;36207;51.850;21.698;2024-03-29T07:37:37;98896.14;;;10.98;75.56
50310;BME280;36207;51.850;21.698;2024-03-29T07:40:04;98892.97;;;11.05;75.40
50310;BME280;36207;51.850;21.698;2024-03-29T07:42:30;98903.02;;;11.14;75.25
50310;BME280;36207;51.850;21.698;2024-03-29T07:44:56;98912.11;;;11.22;74.55
50310;BME280;36207;51.850;21.698;2024-03-29T07:47:22;98915.59;;;11.27;75.16
50310;BME280;36207;51.850;21.698;2024-03-29T07:49:51;98920.90;;;11.37;74.49
50310;BME280;36207;51.850;21.698;2024-03-29T07:52:17;98909.58;;;11.44;74.13
50310;BME280;36207;51.850;21.698;2024-03-29T07:54:45;98912.38;;;11.49;73.89
50310;BME280;36207;51.850;21.698;2024-03-29T07:57:11;98915.45;;;11.55;73.75
50310;BME280;36207;51.850;21.698;2024-03-29T07:59:40;98918.32;;;11.59;72.90
50310;BME280;36207;51.850;21.698;2024-03-29T08:02:06;98925.20;;;11.64;72.92
50310;BME280;36207;51.850;21.698;2024-03-29T08:04:32;98924.64;;;11.71;73.20
50310;BME280;36207;51.850;21.698;2024-03-29T08:06:58;98927.70;;;11.77;72.33
50310;BME280;36207;51.850;21.698;2024-03-29T08:09:24;98923.11;;;11.80;71.64
50310;BME280;36207;51.850;21.698;2024-03-29T08:11:50;98922.65;;;11.83;71.46
50310;BME280;36207;51.850;21.698;2024-03-29T08:14:16;98923.45;;;11.91;72.88
50310;BME280;36207;51.850;21.698;2024-03-29T08:16:42;98926.02;;;12.03;73.36
50310;BME280;36207;51.850;21.698;2024-03-29T08:19:09;98937.44;;;12.13;72.06
50310;BME280;36207;51.850;21.698;2024-03-29T08:21:35;98942.52;;;12.19;71.24
50310;BME280;36207;51.850;21.698;2024-03-29T08:24:01;98948.77;;;12.25;70.79
50310;BME280;36207;51.850;21.698;2024-03-29T08:26:30;98954.70;;;12.33;71.01
50310;BME280;36207;51.850;21.698;2024-03-29T08:28:56;98958.80;;;12.40;70.72
50310;BME280;36207;51.850;21.698;2024-03-29T08:31:23;98958.31;;;12.50;71.11
50310;BME280;36207;51.850;21.698;2024-03-29T08:33:50;98951.41;;;12.60;70.40
50310;BME280;36207;51.850;21.698;2024-03-29T08:36:16;98947.75;;;12.64;70.16
50310;BME280;36207;51.850;21.698;2024-03-29T08:38:42;98943.46;;;12.69;69.88
50310;BME280;36207;51.850;21.698;2024-03-29T08:41:09;98943.13;;;12.74;69.99
50310;BME280;36207;51.850;21.698;2024-03-29T08:43:35;98941.19;;;12.81;69.46
50310;BME280;36207;51.850;21.698;2024-03-29T08:46:01;98944.19;;;12.90;69.43
50310;BME280;36207;51.850;21.698;2024-03-29T08:48:28;98942.34;;;12.98;68.96
50310;BME280;36207;51.850;21.698;2024-03-29T08:50:54;98947.98;;;13.03;68.44
50310;BME280;36207;51.850;21.698;2024-03-29T08:53:20;98947.98;;;13.11;69.21
50310;BME280;36207;51.850;21.698;2024-03-29T08:55:51;98957.22;;;13.11;68.26
50310;BME280;36207;51.850;21.698;2024-03-29T08:58:17;98962.39;;;13.09;67.16
50310;BME280;36207;51.850;21.698;2024-03-29T09:00:55;98970.86;;;13.11;66.94
50310;BME280;36207;51.850;21.698;2024-03-29T09:03:22;98973.69;;;13.14;66.60
50310;BME280;36207;51.850;21.698;2024-03-29T09:05:49;98971.05;;;13.09;66.64
50310;BME280;36207;51.850;21.698;2024-03-29T09:08:16;98970.52;;;13.08;66.43
50310;BME280;36207;51.850;21.698;2024-03-29T09:10:42;98969.38;;;13.12;67.35
50310;BME280;36207;51.850;21.698;2024-03-29T09:13:09;98974.02;;;13.19;66.97
50310;BME280;36207;51.850;21.698;2024-03-29T09:15:37;98978.59;;;13.29;67.51
50310;BME280;36207;51.850;21.698;2024-03-29T09:18:03;98984.44;;;13.38;66.10
50310;BME280;36207;51.850;21.698;2024-03-29T09:20:36;98984.70;;;13.45;66.33
50310;BME280;36207;51.850;21.698;2024-03-29T09:23:03;98985.05;;;13.54;67.51
50310;BME280;36207;51.850;21.698;2024-03-29T09:25:30;98986.64;;;13.67;68.05
50310;BME280;36207;51.850;21.698;2024-03-29T09:27:58;98989.21;;;13.76;66.12
50310;BME280;36207;51.850;21.698;2024-03-29T09:30:23;98994.52;;;13.84;65.11
50310;BME280;36207;51.850;21.698;2024-03-29T09:32:49;98991.23;;;13.90;64.62
50310;BME280;36207;51.850;21.698;2024-03-29T09:35:17;98985.45;;;13.94;64.99
50310;BME280;36207;51.850;21.698;2024-03-29T09:37:44;98986.06;;;14.01;65.16
50310;BME280;36207;51.850;21.698;2024-03-29T09:40:13;98990.30;;;14.04;63.97
50310;BME280;36207;51.850;21.698;2024-03-29T09:42:39;98992.27;;;14.06;63.81
50310;BME280;36207;51.850;21.698;2024-03-29T09:45:07;98992.81;;;14.06;62.06
50310;BME280;36207;51.850;21.698;2024-03-29T09:47:33;98991.41;;;14.09;62.43
50310;BME280;36207;51.850;21.698;2024-03-29T09:50:03;98999.08;;;14.12;62.07
50310;BME280;36207;51.850;21.698;2024-03-29T09:52:33;98993.44;;;14.15;62.16
50310;BME280;36207;51.850;21.698;2024-03-29T09:55:00;98993.52;;;14.16;61.19
50310;BME280;36207;51.850;21.698;2024-03-29T09:57:28;98986.77;;;14.09;61.15
50310;BME280;36207;51.850;21.698;2024-03-29T09:59:58;98980.46;;;14.06;62.40
50310;BME280;36207;51.850;21.698;2024-03-29T10:02:31;98974.99;;;14.10;62.38
50310;BME280;36207;51.850;21.698;2024-03-29T10:05:00;98975.95;;;14.16;61.51
50310;BME280;36207;51.850;21.698;2024-03-29T10:07:29;98987.14;;;14.22;61.07
50310;BME280;36207;51.850;21.698;2024-03-29T10:09:57;98984.83;;;14.30;60.82
50310;BME280;36207;51.850;21.698;2024-03-29T10:12:24;99001.41;;;14.32;60.15
50310;BME280;36207;51.850;21.698;2024-03-29T10:14:50;99005.56;;;14.33;59.51
50310;BME280;36207;51.850;21.698;2024-03-29T10:17:21;99010.48;;;14.36;59.89
50310;BME280;36207;51.850;21.698;2024-03-29T10:19:48;99017.44;;;14.39;59.17
50310;BME280;36207;51.850;21.698;2024-03-29T10:22:14;99011.60;;;14.42;59.56
50310;BME280;36207;51.850;21.698;2024-03-29T10:24:40;99006.67;;;14.44;59.19
50310;BME280;36207;51.850;21.698;2024-03-29T10:27:06;98999.03;;;14.49;60.43
50310;BME280;36207;51.850;21.698;2024-03-29T10:29:34;98999.95;;;14.56;58.86
50310;BME280;36207;51.850;21.698;2024-03-29T10:32:03;99002.75;;;14.62;58.55
50310;BME280;36207;51.850;21.698;2024-03-29T10:34:30;99002.20;;;14.68;58.36
50310;BME280;36207;51.850;21.698;2024-03-29T10:37:02;98999.43;;;14.76;58.53
50310;BME280;36207;51.850;21.698;2024-03-29T10:39:30;98986.69;;;14.82;58.12
50310;BME280;36207;51.850;21.698;2024-03-29T10:41:57;98982.29;;;14.85;56.24
50310;BME280;36207;51.850;21.698;2024-03-29T10:44:25;98985.31;;;14.89;57.82
50310;BME280;36207;51.850;21.698;2024-03-29T10:46:53;98993.41;;;14.95;57.64
50310;BME280;36207;51.850;21.698;2024-03-29T10:49:21;98996.19;;;14.99;57.16
50310;BME280;36207;51.850;21.698;2024-03-29T10:51:49;98994.23;;;15.01;56.25
50310;BME280;36207;51.850;21.698;2024-03-29T10:54:17;98994.35;;;15.03;57.53
50310;BME280;36207;51.850;21.698;2024-03-29T10:56:47;98997.87;;;15.06;56.50
50310;BME280;36207;51.850;21.698;2024-03-29T10:59:22;99004.25;;;15.10;56.82
50310;BME280;36207;51.850;21.698;2024-03-29T11:01:56;99004.95;;;15.15;56.89
50310;BME280;36207;51.850;21.698;2024-03-29T11:04:29;99006.73;;;15.19;55.98
50310;BME280;36207;51.850;21.698;2024-03-29T11:06:58;99001.96;;;15.25;56.44
50310;BME280;36207;51.850;21.698;2024-03-29T11:09:29;99009.44;;;15.33;55.88
50310;BME280;36207;51.850;21.698;2024-03-29T11:11:58;99009.46;;;15.33;54.36
50310;BME280;36207;51.850;21.698;2024-03-29T11:14:42;99003.60;;;15.34;54.52
50310;BME280;36207;51.850;21.698;2024-03-29T11:17:12;98996.41;;;15.37;55.01
50310;BME280;36207;51.850;21.698;2024-03-29T11:19:40;98995.02;;;15.42;54.98
50310;BME280;36207;51.850;21.698;2024-03-29T11:22:07;98991.20;;;15.50;55.69
50310;BME280;36207;51.850;21.698;2024-03-29T11:24:33;98994.11;;;15.57;54.37
50310;BME280;36207;51.850;21.698;2024-03-29T11:27:08;98994.35;;;15.64;54.96
50310;BME280;36207;51.850;21.698;2024-03-29T11:29:34;98991.58;;;15.67;54.99
50310;BME280;36207;51.850;21.698;2024-03-29T11:32:06;98991.34;;;15.70;54.32
50310;BME280;36207;51.850;21.698;2024-03-29T11:34:32;98995.21;;;15.73;54.17
50310;BME280;36207;51.850;21.698;2024-03-29T11:37:11;98994.34;;;15.80;54.28
50310;BME280;36207;51.850;21.698;2024-03-29T11:39:39;98984.04;;;15.85;52.94
50310;BME280;36207;51.850;21.698;2024-03-29T11:42:06;98986.08;;;15.92;53.91
50310;BME280;36207;51.850;21.698;2024-03-29T11:44:32;98991.16;;;15.99;53.55
50310;BME280;36207;51.850;21.698;2024-03-29T11:46:58;98989.66;;;16.01;51.98
50310;BME280;36207;51.850;21.698;2024-03-29T11:49:25;98982.98;;;16.05;53.40
50310;BME280;36207;51.850;21.698;2024-03-29T11:52:02;98971.54;;;16.11;53.30
50310;BME280;36207;51.850;21.698;2024-03-29T11:54:36;98968.81;;;16.16;50.49
50310;BME280;36207;51.850;21.698;2024-03-29T11:57:02;98972.63;;;16.13;50.55
50310;BME280;36207;51.850;21.698;2024-03-29T11:59:29;98973.79;;;16.17;51.63
50310;BME280;36207;51.850;21.698;2024-03-29T12:01:55;98972.66;;;16.25;52.62
50310;BME280;36207;51.850;21.698;2024-03-29T12:04:22;98979.02;;;16.33;52.26
50310;BME280;36207;51.850;21.698;2024-03-29T12:06:49;98979.77;;;16.37;51.65
50310;BME280;36207;51.850;21.698;2024-03-29T12:09:15;98981.15;;;16.40;49.94
50310;BME280;36207;51.850;21.698;2024-03-29T12:11:44;98983.85;;;16.43;50.14
50310;BME280;36207;51.850;21.698;2024-03-29T12:14:15;98984.23;;;16.43;49.23
50310;BME280;36207;51.850;21.698;2024-03-29T12:16:43;98985.25;;;16.42;49.29
50310;BME280;36207;51.850;21.698;2024-03-29T12:19:10;98989.76;;;16.44;50.39
50310;BME280;36207;51.850;21.698;2024-03-29T12:21:36;98980.55;;;16.50;50.22
50310;BME280;36207;51.850;21.698;2024-03-29T12:24:02;98975.52;;;16.56;49.58
50310;BME280;36207;51.850;21.698;2024-03-29T12:26:28;98975.45;;;16.65;50.34
50310;BME280;36207;51.850;21.698;2024-03-29T12:28:56;98981.27;;;16.74;50.02
50310;BME280;36207;51.850;21.698;2024-03-29T12:31:22;98987.09;;;16.80;49.38
50310;BME280;36207;51.850;21.698;2024-03-29T12:33:54;98987.75;;;16.83;48.22
50310;BME280;36207;51.850;21.698;2024-03-29T12:36:23;98995.46;;;16.84;47.06
50310;BME280;36207;51.850;21.698;2024-03-29T12:38:49;98996.85;;;16.86;47.62
50310;BME280;36207;51.850;21.698;2024-03-29T12:41:18;98991.36;;;16.87;46.98
50310;BME280;36207;51.850;21.698;2024-03-29T12:43:45;98989.64;;;16.91;48.27
50310;BME280;36207;51.850;21.698;2024-03-29T12:46:10;98992.52;;;16.96;48.62
50310;BME280;36207;51.850;21.698;2024-03-29T12:48:36;98990.98;;;17.01;49.57
50310;BME280;36207;51.850;21.698;2024-03-29T12:51:03;98990.41;;;17.05;48.77
50310;BME280;36207;51.850;21.698;2024-03-29T12:53:30;98989.94;;;17.07;47.32
50310;BME280;36207;51.850;21.698;2024-03-29T12:55:56;98989.05;;;17.08;47.95